Karen Pape — WDF9420 — position and weather

sailwx.info

Track history (hours):
 
Tides and Currents Weather Stations Pressure Air Temp Water Temp Dewpoint Dewpoint Depression Visibility Wind Speed Wind Dir Waves Ship Positions

Karen Pape

Owner: Genesis Marine, LLC, Houston, TX. More information available from US FCC via Universal Licensing System and Coast Guard Vessel Documentation Center.

Last reported at 2018-Feb-20 09:32 UTC. Time now 2018-Feb-20 10:02 UTC.
Position N 29°22' W 094°55'.

Length 26 m; draft 3.4 m.

Type: Towing. MMSI: 367504970.

Date/timePositionNaut miles runAvg speedWind from/ knotsBaromVisibWave heightAir tempDewpointWater temp
2018-Feb-20 09:32N 29°22' W 094°55'0 0.0
2018-Feb-20 09:23N 29°22' W 094°55'0 0.0
2018-Feb-20 08:18N 29°22' W 094°55'0 0.0
2018-Feb-20 07:53N 29°22' W 094°55'0 0.0
2018-Feb-20 07:30N 29°22' W 094°55'0 0.0
2018-Feb-20 06:58N 29°22' W 094°55'0 0.0
2018-Feb-20 06:24N 29°22' W 094°55'0 0.0
2018-Feb-20 03:20N 29°22' W 094°55'1 0.2
2018-Feb-19 21:44N 29°22' W 094°53'0 0.3
2018-Feb-19 20:37N 29°22' W 094°54'0 2.3
2018-Feb-19 20:30N 29°22' W 094°53'1 1.5
2018-Feb-19 19:48N 29°23' W 094°53'1 3.8
2018-Feb-19 19:31N 29°23' W 094°52'6 4.6
2018-Feb-19 18:18N 29°24' W 094°46'1 1.8
2018-Feb-19 17:58N 29°24' W 094°45'1 1.6
2018-Feb-19 17:25N 29°25' W 094°44'1 2.3
2018-Feb-19 16:57N 29°25' W 094°43'2 4.7
2018-Feb-19 16:27N 29°27' W 094°41'1 2.3
2018-Feb-19 15:58N 29°28' W 094°40'2 4.0
2018-Feb-19 15:29N 29°28' W 094°38'2 4.0
2018-Feb-19 14:54N 29°29' W 094°36'1 3.9
2018-Feb-19 14:30N 29°30' W 094°34'2 3.9
2018-Feb-19 13:58N 29°31' W 094°32'2 4.2
2018-Feb-19 13:27N 29°31' W 094°30'2 2.0
2018-Feb-19 12:39N 29°33' W 094°28'0 0.0
2018-Feb-19 12:23N 29°33' W 094°28'0 0.0
2018-Feb-19 11:57N 29°33' W 094°28'0 0.1
2018-Feb-19 11:30N 29°33' W 094°28'1 2.8
2018-Feb-19 11:00N 29°34' W 094°27'1 1.6
2018-Feb-19 10:30N 29°34' W 094°27'0 0.0
2018-Feb-19 10:01N 29°34' W 094°27'0 0.0
2018-Feb-19 09:31N 29°34' W 094°27'0 0.0
2018-Feb-19 09:00N 29°34' W 094°27'0 0.0
2018-Feb-19 08:30N 29°34' W 094°27'0 0.0
2018-Feb-19 08:01N 29°34' W 094°27'0 0.0
2018-Feb-19 07:30N 29°34' W 094°27'0 0.0
2018-Feb-19 07:00N 29°34' W 094°27'0 0.0
2018-Feb-19 06:31N 29°34' W 094°27'0 0.0
2018-Feb-19 06:01N 29°34' W 094°27'0 0.0
2018-Feb-19 05:30N 29°34' W 094°27'0 0.0
2018-Feb-19 05:00N 29°34' W 094°27'0 0.0
2018-Feb-19 04:30N 29°34' W 094°27'0 0.0
2018-Feb-19 04:00N 29°34' W 094°27'0 0.0
2018-Feb-19 03:30N 29°34' W 094°27'0 0.0
2018-Feb-19 03:00N 29°34' W 094°27'0 0.0
2018-Feb-19 02:30N 29°34' W 094°27'0 0.1
2018-Feb-19 02:00N 29°34' W 094°27'0 0.0
2018-Feb-19 01:30N 29°34' W 094°27'0 0.0
2018-Feb-19 01:01N 29°34' W 094°27'0 0.0
2018-Feb-19 00:30N 29°34' W 094°27'0 0.0
2018-Feb-19 00:00N 29°34' W 094°27'0 0.0
2018-Feb-18 23:30N 29°34' W 094°27'0 0.0
2018-Feb-18 22:58N 29°34' W 094°27'0 0.0
2018-Feb-18 22:30N 29°34' W 094°27'1 2.2
2018-Feb-18 21:58N 29°34' W 094°25'2 3.9
2018-Feb-18 21:30N 29°36' W 094°24'2 3.5
2018-Feb-18 21:00N 29°36' W 094°22'2 4.5
2018-Feb-18 20:30N 29°37' W 094°20'0 0.8
2018-Feb-18 20:00N 29°37' W 094°20'0 0.2
2018-Feb-18 19:30N 29°37' W 094°20'0 0.1
2018-Feb-18 19:00N 29°37' W 094°20'0 0.0
2018-Feb-18 18:30N 29°37' W 094°20'0 0.0
2018-Feb-18 18:00N 29°37' W 094°20'0 0.0
2018-Feb-18 17:30N 29°37' W 094°20'0 0.0
2018-Feb-18 17:00N 29°37' W 094°20'0 0.0
2018-Feb-18 16:30N 29°37' W 094°20'0 0.0
2018-Feb-18 16:00N 29°37' W 094°20'0 0.1
2018-Feb-18 15:30N 29°37' W 094°20'0 0.1
2018-Feb-18 15:00N 29°37' W 094°20'0 0.0
2018-Feb-18 14:30N 29°37' W 094°20'0 0.0
2018-Feb-18 13:59N 29°37' W 094°20'0 0.1
2018-Feb-18 13:30N 29°37' W 094°20'0 0.0
2018-Feb-18 12:58N 29°37' W 094°20'0 0.0
2018-Feb-18 12:31N 29°37' W 094°20'0 0.0
2018-Feb-18 12:00N 29°37' W 094°20'0 0.2
2018-Feb-18 11:31N 29°37' W 094°20'0 0.1
2018-Feb-18 11:00N 29°37' W 094°20'0 0.1
2018-Feb-18 10:29N 29°37' W 094°20'0 0.2
2018-Feb-18 10:00N 29°37' W 094°20'0 0.5
2018-Feb-18 09:30N 29°38' W 094°19'0 0.8
2018-Feb-18 09:00N 29°38' W 094°19'0 0.3
2018-Feb-18 08:29N 29°38' W 094°19'0 0.7
2018-Feb-18 08:00N 29°38' W 094°18'0 0.7
2018-Feb-18 07:30N 29°38' W 094°18'0 0.3
2018-Feb-18 07:00N 29°38' W 094°18'1 3.0
2018-Feb-18 06:31N 29°39' W 094°16'2 3.8
2018-Feb-18 06:00N 29°40' W 094°14'2 3.5
2018-Feb-18 05:30N 29°41' W 094°13'2 3.8
2018-Feb-18 05:01N 29°41' W 094°11'2 3.2
2018-Feb-18 04:30N 29°42' W 094°09'2 3.3
2018-Feb-18 04:00N 29°43' W 094°07'1 2.1
2018-Feb-18 03:31N 29°44' W 094°06'0 0.0
2018-Feb-18 03:00N 29°44' W 094°06'0 0.0
2018-Feb-18 02:30N 29°44' W 094°06'0 0.0
2018-Feb-18 02:01N 29°44' W 094°06'0 0.2
2018-Feb-18 01:30N 29°44' W 094°06'1 1.2
2018-Feb-18 01:00N 29°44' W 094°06'0 0.2
2018-Feb-18 00:30N 29°44' W 094°06'1 2.3
2018-Feb-18 00:00N 29°45' W 094°05'2 4.8
2018-Feb-17 23:31N 29°46' W 094°03'1 1.9
2018-Feb-17 23:01N 29°47' W 094°02'2 4.7
2018-Feb-17 22:31N 29°49' W 093°60'2 4.1
2018-Feb-17 22:00N 29°49' W 093°58'1 2.4
2018-Feb-17 21:30N 29°51' W 093°58'0 0.0
2018-Feb-17 21:01N 29°51' W 093°58'0 0.1
2018-Feb-17 20:30N 29°51' W 093°58'0 0.1
2018-Feb-17 20:00N 29°51' W 093°58'0 0.1
2018-Feb-17 19:31N 29°51' W 093°58'0 0.1
2018-Feb-17 19:01N 29°51' W 093°58'0 0.0
2018-Feb-17 18:30N 29°51' W 093°58'0 0.0
2018-Feb-17 18:01N 29°51' W 093°58'0 0.0
2018-Feb-17 17:31N 29°51' W 093°58'0 0.0
2018-Feb-17 17:00N 29°51' W 093°58'0 0.0
2018-Feb-17 16:30N 29°51' W 093°58'0 0.0
2018-Feb-17 16:00N 29°51' W 093°58'0 0.0
2018-Feb-17 15:31N 29°51' W 093°58'0 0.0
2018-Feb-17 15:01N 29°51' W 093°58'0 0.0
2018-Feb-17 14:30N 29°51' W 093°58'0 0.0
2018-Feb-17 14:00N 29°51' W 093°58'0 0.0
2018-Feb-17 13:31N 29°51' W 093°58'0 0.0
2018-Feb-17 13:01N 29°51' W 093°58'0 0.0
2018-Feb-17 12:30N 29°51' W 093°58'0 0.0
2018-Feb-17 12:00N 29°51' W 093°58'0 0.0
2018-Feb-17 11:31N 29°51' W 093°58'0 0.0
2018-Feb-17 11:01N 29°51' W 093°58'0 0.0
2018-Feb-17 10:31N 29°51' W 093°58'0 0.0
2018-Feb-17 10:01N 29°51' W 093°58'0 0.0
2018-Feb-17 09:30N 29°51' W 093°58'0 0.0
2018-Feb-17 09:00N 29°51' W 093°58'0 0.0
2018-Feb-17 08:31N 29°51' W 093°58'0 0.0
2018-Feb-17 08:01N 29°51' W 093°58'0 0.0
2018-Feb-17 07:31N 29°51' W 093°58'0 0.0
2018-Feb-17 07:00N 29°51' W 093°58'0 0.0
2018-Feb-17 06:30N 29°51' W 093°58'0 0.0
2018-Feb-17 06:00N 29°51' W 093°58'0 0.0
2018-Feb-17 05:30N 29°51' W 093°58'0 0.0
2018-Feb-17 05:01N 29°51' W 093°58'0 0.0
2018-Feb-17 04:31N 29°51' W 093°58'0 0.0
2018-Feb-17 04:00N 29°51' W 093°58'0 0.0
2018-Feb-17 03:30N 29°51' W 093°58'0 0.0
2018-Feb-17 03:00N 29°51' W 093°58'0 0.0
2018-Feb-17 02:31N 29°51' W 093°58'0 0.0
2018-Feb-17 02:00N 29°51' W 093°58'0 0.0
2018-Feb-17 01:30N 29°51' W 093°58'0 0.0
2018-Feb-17 01:00N 29°51' W 093°58'0 0.0
2018-Feb-17 00:31N 29°51' W 093°58'0 0.0
2018-Feb-17 00:01N 29°51' W 093°58'0 0.0
2018-Feb-16 23:31N 29°51' W 093°58'0 0.0
2018-Feb-16 23:01N 29°51' W 093°58'0 0.0
2018-Feb-16 22:30N 29°51' W 093°58'0 0.0
2018-Feb-16 22:00N 29°51' W 093°58'0 0.0
2018-Feb-16 21:30N 29°51' W 093°58'0 0.0
2018-Feb-16 21:01N 29°51' W 093°58'0 0.0
2018-Feb-16 20:31N 29°51' W 093°58'0 0.0
2018-Feb-16 20:01N 29°51' W 093°58'0 0.0
2018-Feb-16 19:30N 29°51' W 093°58'0 0.0
2018-Feb-16 19:00N 29°51' W 093°58'0 0.0
2018-Feb-16 18:31N 29°51' W 093°58'0 0.0
2018-Feb-16 18:00N 29°51' W 093°58'0 0.0
2018-Feb-16 17:30N 29°51' W 093°58'0 0.0
2018-Feb-16 17:01N 29°51' W 093°58'0 0.0
2018-Feb-16 16:30N 29°51' W 093°58'0 0.0
2018-Feb-16 16:01N 29°51' W 093°58'0 0.0
2018-Feb-16 15:30N 29°51' W 093°58'0 0.0
2018-Feb-16 15:00N 29°51' W 093°58'0 0.0
2018-Feb-16 14:30N 29°51' W 093°58'0 0.0
2018-Feb-16 14:01N 29°51' W 093°58'0 0.0
2018-Feb-16 13:31N 29°51' W 093°58'0 0.0
2018-Feb-16 13:01N 29°51' W 093°58'0 0.0
2018-Feb-16 12:30N 29°51' W 093°58'0 0.0
2018-Feb-16 12:00N 29°51' W 093°58'0 0.0
2018-Feb-16 11:31N 29°51' W 093°58'0 0.0
2018-Feb-16 11:00N 29°51' W 093°58'0 0.0
2018-Feb-16 10:31N 29°51' W 093°58'0 0.0
2018-Feb-16 10:00N 29°51' W 093°58'0 0.0
2018-Feb-16 09:31N 29°51' W 093°58'0 0.0
2018-Feb-16 09:00N 29°51' W 093°58'0 0.0
2018-Feb-16 08:31N 29°51' W 093°58'0 0.0
2018-Feb-16 08:01N 29°51' W 093°58'0 0.0
2018-Feb-16 07:30N 29°51' W 093°58'0 0.0
2018-Feb-16 07:00N 29°51' W 093°58'0 0.0
2018-Feb-16 06:30N 29°51' W 093°58'0 0.0
2018-Feb-16 06:01N 29°51' W 093°58'0 0.0
2018-Feb-16 05:31N 29°51' W 093°58'0 0.0
2018-Feb-16 05:00N 29°51' W 093°58'0 0.0
2018-Feb-16 04:30N 29°51' W 093°58'0 0.2
2018-Feb-16 04:01N 29°51' W 093°58'0 0.0
2018-Feb-16 03:31N 29°51' W 093°58'0 0.0
2018-Feb-16 03:00N 29°51' W 093°58'0 0.0
2018-Feb-16 02:30N 29°51' W 093°58'0 0.0
2018-Feb-16 02:01N 29°51' W 093°58'0 0.0
2018-Feb-16 01:30N 29°51' W 093°58'0 0.0
2018-Feb-16 01:01N 29°51' W 093°58'0 0.0
2018-Feb-16 00:31N 29°51' W 093°58'0 0.0
2018-Feb-16 00:00N 29°51' W 093°58'0 0.0
2018-Feb-15 23:31N 29°51' W 093°58'0 0.0
2018-Feb-15 23:01N 29°51' W 093°58'0 0.0
2018-Feb-15 22:31N 29°51' W 093°58'0 0.0
2018-Feb-15 22:00N 29°51' W 093°58'0 0.1
2018-Feb-15 21:30N 29°51' W 093°58'1 2.2
2018-Feb-15 21:01N 29°50' W 093°58'2 3.7
2018-Feb-15 20:30N 29°51' W 093°57'2 3.6
2018-Feb-15 20:01N 29°53' W 093°55'2 4.2
2018-Feb-15 19:30N 29°54' W 093°54'2 4.5
2018-Feb-15 19:01N 29°56' W 093°52'1 2.9
2018-Feb-15 18:30N 29°57' W 093°52'0 0.0
2018-Feb-15 18:00N 29°57' W 093°52'0 0.0
2018-Feb-15 17:30N 29°57' W 093°52'0 0.0
2018-Feb-15 17:00N 29°57' W 093°52'0 0.0
2018-Feb-15 16:31N 29°57' W 093°52'0 0.0
2018-Feb-15 16:00N 29°57' W 093°52'0 0.0
2018-Feb-15 15:31N 29°57' W 093°52'0 0.0
2018-Feb-15 15:01N 29°57' W 093°52'0 0.0
2018-Feb-15 14:31N 29°57' W 093°52'0 0.0
2018-Feb-15 14:01N 29°57' W 093°52'0 0.0
2018-Feb-15 13:30N 29°57' W 093°52'0 0.0
2018-Feb-15 13:00N 29°57' W 093°52'0 0.0
2018-Feb-15 12:30N 29°57' W 093°52'0 0.0
2018-Feb-15 12:00N 29°57' W 093°52'0 0.0
2018-Feb-15 11:31N 29°57' W 093°52'0 0.0
2018-Feb-15 11:00N 29°57' W 093°52'0 0.0
2018-Feb-15 10:31N 29°57' W 093°52'0 0.0
2018-Feb-15 10:01N 29°57' W 093°52'0 0.0
2018-Feb-15 09:30N 29°57' W 093°52'0 0.0
2018-Feb-15 09:00N 29°57' W 093°52'0 0.0
2018-Feb-15 08:31N 29°57' W 093°52'0 0.0
2018-Feb-15 08:01N 29°57' W 093°52'0 0.0
2018-Feb-15 07:30N 29°57' W 093°52'0 0.0
2018-Feb-15 07:01N 29°57' W 093°52'0 0.0
2018-Feb-15 06:30N 29°57' W 093°52'0 0.0
2018-Feb-15 06:00N 29°57' W 093°52'0 0.0
2018-Feb-15 05:31N 29°57' W 093°52'0 0.0
2018-Feb-15 05:01N 29°57' W 093°52'0 0.0
2018-Feb-15 04:30N 29°57' W 093°52'0 0.0
2018-Feb-15 04:00N 29°57' W 093°52'0 0.0
2018-Feb-15 03:30N 29°57' W 093°52'0 0.0
2018-Feb-15 03:01N 29°57' W 093°52'0 0.0
2018-Feb-15 02:29N 29°57' W 093°52'0 0.0
2018-Feb-15 02:01N 29°57' W 093°52'0 0.1
2018-Feb-15 01:30N 29°57' W 093°52'0 0.1
2018-Feb-15 01:00N 29°58' W 093°52'0 0.0
2018-Feb-15 00:31N 29°58' W 093°52'0 0.0
2018-Feb-14 23:59N 29°58' W 093°52'0 0.0
2018-Feb-14 23:30N 29°58' W 093°52'0 0.0
2018-Feb-14 23:00N 29°58' W 093°52'0 0.0
2018-Feb-14 22:30N 29°58' W 093°52'0 0.0
2018-Feb-14 22:00N 29°58' W 093°52'0 0.0
2018-Feb-14 21:30N 29°58' W 093°52'0 0.0
2018-Feb-14 21:00N 29°58' W 093°52'0 0.0
2018-Feb-14 20:30N 29°58' W 093°52'0 0.0
2018-Feb-14 20:00N 29°58' W 093°52'0 0.0
2018-Feb-14 19:31N 29°58' W 093°52'0 0.0
2018-Feb-14 19:01N 29°58' W 093°52'0 0.0
2018-Feb-14 18:31N 29°58' W 093°52'0 0.0
2018-Feb-14 18:01N 29°58' W 093°52'0 0.0
2018-Feb-14 17:31N 29°58' W 093°52'0 0.0
2018-Feb-14 17:00N 29°58' W 093°52'0 0.0
2018-Feb-14 16:29N 29°58' W 093°52'0 0.0
2018-Feb-14 16:00N 29°58' W 093°52'0 0.0
2018-Feb-14 15:29N 29°58' W 093°52'0 0.0
2018-Feb-14 15:00N 29°58' W 093°52'0 0.0
2018-Feb-14 14:30N 29°58' W 093°52'0 0.0
2018-Feb-14 14:00N 29°58' W 093°52'0 0.0
2018-Feb-14 13:30N 29°58' W 093°52'0 0.0
2018-Feb-14 13:00N 29°58' W 093°52'0 0.0
2018-Feb-14 12:31N 29°58' W 093°52'0 0.0
2018-Feb-14 12:00N 29°58' W 093°52'0 0.0
2018-Feb-14 11:30N 29°58' W 093°52'0 0.0
2018-Feb-14 11:00N 29°58' W 093°52'0 0.0
2018-Feb-14 10:27N 29°58' W 093°52'0 0.0
2018-Feb-14 09:59N 29°58' W 093°52'0 0.0
2018-Feb-14 09:30N 29°58' W 093°52'0 0.0
2018-Feb-14 09:01N 29°58' W 093°52'0 0.0
2018-Feb-14 08:29N 29°58' W 093°52'0 0.0
2018-Feb-14 08:01N 29°58' W 093°52'0 0.0
2018-Feb-14 07:30N 29°58' W 093°52'0 0.0
2018-Feb-14 07:01N 29°58' W 093°52'0 0.0
2018-Feb-14 06:31N 29°58' W 093°52'0 0.0
2018-Feb-14 06:00N 29°58' W 093°52'0 0.0
2018-Feb-14 05:31N 29°58' W 093°52'0 0.0
2018-Feb-14 05:00N 29°58' W 093°52'0 0.0
2018-Feb-14 04:30N 29°58' W 093°52'0 0.0
2018-Feb-14 04:01N 29°58' W 093°52'0 0.2
2018-Feb-14 03:30N 29°57' W 093°52'0 0.4
2018-Feb-14 03:00N 29°57' W 093°52'1 1.5
2018-Feb-14 02:31N 29°58' W 093°51'0 0.0
2018-Feb-14 02:01N 29°58' W 093°51'0 0.0
2018-Feb-14 01:30N 29°58' W 093°51'0 0.0
2018-Feb-14 01:00N 29°58' W 093°51'0 0.0
2018-Feb-14 00:31N 29°58' W 093°51'0 0.0
2018-Feb-14 00:00N 29°58' W 093°51'0 0.0
2018-Feb-13 23:31N 29°58' W 093°51'0 0.0
2018-Feb-13 23:00N 29°58' W 093°51'0 0.0
2018-Feb-13 22:30N 29°58' W 093°51'0 0.1
2018-Feb-13 22:00N 29°58' W 093°51'1 1.4
2018-Feb-13 21:31N 29°57' W 093°52'0 0.1
2018-Feb-13 21:00N 29°57' W 093°52'1 1.1
2018-Feb-13 20:30N 29°57' W 093°52'1 1.7
2018-Feb-13 20:01N 29°56' W 093°52'3 5.4
2018-Feb-13 19:31N 29°54' W 093°54'3 5.4
2018-Feb-13 19:00N 29°52' W 093°56'3 5.0
2018-Feb-13 18:31N 29°50' W 093°57'1 2.3
2018-Feb-13 18:01N 29°49' W 093°59'0 0.0
2018-Feb-13 17:31N 29°49' W 093°59'0 0.0
2018-Feb-13 17:00N 29°49' W 093°59'0 0.0
2018-Feb-13 16:31N 29°49' W 093°59'0 0.0
2018-Feb-13 16:01N 29°49' W 093°59'0 0.0
2018-Feb-13 15:30N 29°49' W 093°59'0 0.0
2018-Feb-13 15:00N 29°49' W 093°59'0 0.0
2018-Feb-13 14:31N 29°49' W 093°59'0 0.0
2018-Feb-13 14:01N 29°49' W 093°59'0 0.0
2018-Feb-13 13:31N 29°49' W 093°59'0 0.0
2018-Feb-13 13:00N 29°49' W 093°59'0 0.0
2018-Feb-13 12:31N 29°49' W 093°59'0 0.0
2018-Feb-13 12:01N 29°49' W 093°59'0 0.0
2018-Feb-13 11:31N 29°49' W 093°59'0 0.0
2018-Feb-13 11:00N 29°49' W 093°59'0 0.0
2018-Feb-13 10:30N 29°49' W 093°59'0 0.0
2018-Feb-13 10:00N 29°49' W 093°59'0 0.0
2018-Feb-13 09:30N 29°49' W 093°59'0 0.7
2018-Feb-13 09:00N 29°49' W 093°59'0 0.1
2018-Feb-13 08:30N 29°49' W 093°59'2 3.6
2018-Feb-13 08:00N 29°48' W 094°01'2 4.1
2018-Feb-13 07:30N 29°46' W 094°02'2 3.9
2018-Feb-13 07:00N 29°45' W 094°04'2 3.1
2018-Feb-13 06:31N 29°44' W 094°05'2 4.0
2018-Feb-13 06:01N 29°43' W 094°07'2 4.1
2018-Feb-13 05:31N 29°42' W 094°09'2 4.1
2018-Feb-13 05:00N 29°41' W 094°11'2 3.9
2018-Feb-13 04:30N 29°40' W 094°13'1 3.0
2018-Feb-13 04:00N 29°40' W 094°15'2 3.2
2018-Feb-13 03:30N 29°39' W 094°17'1 2.1
2018-Feb-13 03:00N 29°38' W 094°18'2 3.1
2018-Feb-13 02:29N 29°38' W 094°19'2 3.8
2018-Feb-13 01:57N 29°37' W 094°21'2 4.0
2018-Feb-13 01:28N 29°36' W 094°23'2 3.1
2018-Feb-13 00:58N 29°35' W 094°25'  
Track history (hours):
 
Tides and Currents Weather Stations Pressure Air Temp Water Temp Dewpoint Dewpoint Depression Visibility Wind Speed Wind Dir Waves Ship Positions

Karen Pape

Owner: Genesis Marine, LLC, Houston, TX. More information available from US FCC via Universal Licensing System and Coast Guard Vessel Documentation Center.

Last reported at 2018-Feb-20 09:32 UTC. Time now 2018-Feb-20 10:02 UTC.
Position N 29°22' W 094°55'.

Length 26 m; draft 3.4 m.

Type: Towing. MMSI: 367504970.

Date/timePositionNaut miles runAvg speedWind from/ knotsBaromVisibWave heightAir tempDewpointWater temp
2018-Feb-20 09:32N 29°22' W 094°55'0 0.0
2018-Feb-20 09:23N 29°22' W 094°55'0 0.0
2018-Feb-20 08:18N 29°22' W 094°55'0 0.0
2018-Feb-20 07:53N 29°22' W 094°55'0 0.0
2018-Feb-20 07:30N 29°22' W 094°55'0 0.0
2018-Feb-20 06:58N 29°22' W 094°55'0 0.0
2018-Feb-20 06:24N 29°22' W 094°55'0 0.0
2018-Feb-20 03:20N 29°22' W 094°55'1 0.2
2018-Feb-19 21:44N 29°22' W 094°53'0 0.3
2018-Feb-19 20:37N 29°22' W 094°54'0 2.3
2018-Feb-19 20:30N 29°22' W 094°53'1 1.5
2018-Feb-19 19:48N 29°23' W 094°53'1 3.8
2018-Feb-19 19:31N 29°23' W 094°52'6 4.6
2018-Feb-19 18:18N 29°24' W 094°46'1 1.8
2018-Feb-19 17:58N 29°24' W 094°45'1 1.6
2018-Feb-19 17:25N 29°25' W 094°44'1 2.3
2018-Feb-19 16:57N 29°25' W 094°43'2 4.7
2018-Feb-19 16:27N 29°27' W 094°41'1 2.3
2018-Feb-19 15:58N 29°28' W 094°40'2 4.0
2018-Feb-19 15:29N 29°28' W 094°38'2 4.0
2018-Feb-19 14:54N 29°29' W 094°36'1 3.9
2018-Feb-19 14:30N 29°30' W 094°34'2 3.9
2018-Feb-19 13:58N 29°31' W 094°32'2 4.2
2018-Feb-19 13:27N 29°31' W 094°30'2 2.0
2018-Feb-19 12:39N 29°33' W 094°28'0 0.0
2018-Feb-19 12:23N 29°33' W 094°28'0 0.0
2018-Feb-19 11:57N 29°33' W 094°28'0 0.1
2018-Feb-19 11:30N 29°33' W 094°28'1 2.8
2018-Feb-19 11:00N 29°34' W 094°27'1 1.6
2018-Feb-19 10:30N 29°34' W 094°27'0 0.0
2018-Feb-19 10:01N 29°34' W 094°27'0 0.0
2018-Feb-19 09:31N 29°34' W 094°27'0 0.0
2018-Feb-19 09:00N 29°34' W 094°27'0 0.0
2018-Feb-19 08:30N 29°34' W 094°27'0 0.0
2018-Feb-19 08:01N 29°34' W 094°27'0 0.0
2018-Feb-19 07:30N 29°34' W 094°27'0 0.0
2018-Feb-19 07:00N 29°34' W 094°27'0 0.0
2018-Feb-19 06:31N 29°34' W 094°27'0 0.0
2018-Feb-19 06:01N 29°34' W 094°27'0 0.0
2018-Feb-19 05:30N 29°34' W 094°27'0 0.0
2018-Feb-19 05:00N 29°34' W 094°27'0 0.0
2018-Feb-19 04:30N 29°34' W 094°27'0 0.0
2018-Feb-19 04:00N 29°34' W 094°27'0 0.0
2018-Feb-19 03:30N 29°34' W 094°27'0 0.0
2018-Feb-19 03:00N 29°34' W 094°27'0 0.0
2018-Feb-19 02:30N 29°34' W 094°27'0 0.1
2018-Feb-19 02:00N 29°34' W 094°27'0 0.0
2018-Feb-19 01:30N 29°34' W 094°27'0 0.0
2018-Feb-19 01:01N 29°34' W 094°27'0 0.0
2018-Feb-19 00:30N 29°34' W 094°27'0 0.0
2018-Feb-19 00:00N 29°34' W 094°27'0 0.0
2018-Feb-18 23:30N 29°34' W 094°27'0 0.0
2018-Feb-18 22:58N 29°34' W 094°27'0 0.0
2018-Feb-18 22:30N 29°34' W 094°27'1 2.2
2018-Feb-18 21:58N 29°34' W 094°25'2 3.9
2018-Feb-18 21:30N 29°36' W 094°24'2 3.5
2018-Feb-18 21:00N 29°36' W 094°22'2 4.5
2018-Feb-18 20:30N 29°37' W 094°20'0 0.8
2018-Feb-18 20:00N 29°37' W 094°20'0 0.2
2018-Feb-18 19:30N 29°37' W 094°20'0 0.1
2018-Feb-18 19:00N 29°37' W 094°20'0 0.0
2018-Feb-18 18:30N 29°37' W 094°20'0 0.0
2018-Feb-18 18:00N 29°37' W 094°20'0 0.0
2018-Feb-18 17:30N 29°37' W 094°20'0 0.0
2018-Feb-18 17:00N 29°37' W 094°20'0 0.0
2018-Feb-18 16:30N 29°37' W 094°20'0 0.0
2018-Feb-18 16:00N 29°37' W 094°20'0 0.1
2018-Feb-18 15:30N 29°37' W 094°20'0 0.1
2018-Feb-18 15:00N 29°37' W 094°20'0 0.0
2018-Feb-18 14:30N 29°37' W 094°20'0 0.0
2018-Feb-18 13:59N 29°37' W 094°20'0 0.1
2018-Feb-18 13:30N 29°37' W 094°20'0 0.0
2018-Feb-18 12:58N 29°37' W 094°20'0 0.0
2018-Feb-18 12:31N 29°37' W 094°20'0 0.0
2018-Feb-18 12:00N 29°37' W 094°20'0 0.2
2018-Feb-18 11:31N 29°37' W 094°20'0 0.1
2018-Feb-18 11:00N 29°37' W 094°20'0 0.1
2018-Feb-18 10:29N 29°37' W 094°20'0 0.2
2018-Feb-18 10:00N 29°37' W 094°20'0 0.5
2018-Feb-18 09:30N 29°38' W 094°19'0 0.8
2018-Feb-18 09:00N 29°38' W 094°19'0 0.3
2018-Feb-18 08:29N 29°38' W 094°19'0 0.7
2018-Feb-18 08:00N 29°38' W 094°18'0 0.7
2018-Feb-18 07:30N 29°38' W 094°18'0 0.3
2018-Feb-18 07:00N 29°38' W 094°18'1 3.0
2018-Feb-18 06:31N 29°39' W 094°16'2 3.8
2018-Feb-18 06:00N 29°40' W 094°14'2 3.5
2018-Feb-18 05:30N 29°41' W 094°13'2 3.8
2018-Feb-18 05:01N 29°41' W 094°11'2 3.2
2018-Feb-18 04:30N 29°42' W 094°09'2 3.3
2018-Feb-18 04:00N 29°43' W 094°07'1 2.1
2018-Feb-18 03:31N 29°44' W 094°06'0 0.0
2018-Feb-18 03:00N 29°44' W 094°06'0 0.0
2018-Feb-18 02:30N 29°44' W 094°06'0 0.0
2018-Feb-18 02:01N 29°44' W 094°06'0 0.2
2018-Feb-18 01:30N 29°44' W 094°06'1 1.2
2018-Feb-18 01:00N 29°44' W 094°06'0 0.2
2018-Feb-18 00:30N 29°44' W 094°06'1 2.3
2018-Feb-18 00:00N 29°45' W 094°05'2 4.8
2018-Feb-17 23:31N 29°46' W 094°03'1 1.9
2018-Feb-17 23:01N 29°47' W 094°02'2 4.7
2018-Feb-17 22:31N 29°49' W 093°60'2 4.1
2018-Feb-17 22:00N 29°49' W 093°58'1 2.4
2018-Feb-17 21:30N 29°51' W 093°58'0 0.0
2018-Feb-17 21:01N 29°51' W 093°58'0 0.1
2018-Feb-17 20:30N 29°51' W 093°58'0 0.1
2018-Feb-17 20:00N 29°51' W 093°58'0 0.1
2018-Feb-17 19:31N 29°51' W 093°58'0 0.1
2018-Feb-17 19:01N 29°51' W 093°58'0 0.0
2018-Feb-17 18:30N 29°51' W 093°58'0 0.0
2018-Feb-17 18:01N 29°51' W 093°58'0 0.0
2018-Feb-17 17:31N 29°51' W 093°58'0 0.0
2018-Feb-17 17:00N 29°51' W 093°58'0 0.0
2018-Feb-17 16:30N 29°51' W 093°58'0 0.0
2018-Feb-17 16:00N 29°51' W 093°58'0 0.0
2018-Feb-17 15:31N 29°51' W 093°58'0 0.0
2018-Feb-17 15:01N 29°51' W 093°58'0 0.0
2018-Feb-17 14:30N 29°51' W 093°58'0 0.0
2018-Feb-17 14:00N 29°51' W 093°58'0 0.0
2018-Feb-17 13:31N 29°51' W 093°58'0 0.0
2018-Feb-17 13:01N 29°51' W 093°58'0 0.0
2018-Feb-17 12:30N 29°51' W 093°58'0 0.0
2018-Feb-17 12:00N 29°51' W 093°58'0 0.0
2018-Feb-17 11:31N 29°51' W 093°58'0 0.0
2018-Feb-17 11:01N 29°51' W 093°58'0 0.0
2018-Feb-17 10:31N 29°51' W 093°58'0 0.0
2018-Feb-17 10:01N 29°51' W 093°58'0 0.0
2018-Feb-17 09:30N 29°51' W 093°58'0 0.0
2018-Feb-17 09:00N 29°51' W 093°58'0 0.0
2018-Feb-17 08:31N 29°51' W 093°58'0 0.0
2018-Feb-17 08:01N 29°51' W 093°58'0 0.0
2018-Feb-17 07:31N 29°51' W 093°58'0 0.0
2018-Feb-17 07:00N 29°51' W 093°58'0 0.0
2018-Feb-17 06:30N 29°51' W 093°58'0 0.0
2018-Feb-17 06:00N 29°51' W 093°58'0 0.0
2018-Feb-17 05:30N 29°51' W 093°58'0 0.0
2018-Feb-17 05:01N 29°51' W 093°58'0 0.0
2018-Feb-17 04:31N 29°51' W 093°58'0 0.0
2018-Feb-17 04:00N 29°51' W 093°58'0 0.0
2018-Feb-17 03:30N 29°51' W 093°58'0 0.0
2018-Feb-17 03:00N 29°51' W 093°58'0 0.0
2018-Feb-17 02:31N 29°51' W 093°58'0 0.0
2018-Feb-17 02:00N 29°51' W 093°58'0 0.0
2018-Feb-17 01:30N 29°51' W 093°58'0 0.0
2018-Feb-17 01:00N 29°51' W 093°58'0 0.0
2018-Feb-17 00:31N 29°51' W 093°58'0 0.0
2018-Feb-17 00:01N 29°51' W 093°58'0 0.0
2018-Feb-16 23:31N 29°51' W 093°58'0 0.0
2018-Feb-16 23:01N 29°51' W 093°58'0 0.0
2018-Feb-16 22:30N 29°51' W 093°58'0 0.0
2018-Feb-16 22:00N 29°51' W 093°58'0 0.0
2018-Feb-16 21:30N 29°51' W 093°58'0 0.0
2018-Feb-16 21:01N 29°51' W 093°58'0 0.0
2018-Feb-16 20:31N 29°51' W 093°58'0 0.0
2018-Feb-16 20:01N 29°51' W 093°58'0 0.0
2018-Feb-16 19:30N 29°51' W 093°58'0 0.0
2018-Feb-16 19:00N 29°51' W 093°58'0 0.0
2018-Feb-16 18:31N 29°51' W 093°58'0 0.0
2018-Feb-16 18:00N 29°51' W 093°58'0 0.0
2018-Feb-16 17:30N 29°51' W 093°58'0 0.0
2018-Feb-16 17:01N 29°51' W 093°58'0 0.0
2018-Feb-16 16:30N 29°51' W 093°58'0 0.0
2018-Feb-16 16:01N 29°51' W 093°58'0 0.0
2018-Feb-16 15:30N 29°51' W 093°58'0 0.0
2018-Feb-16 15:00N 29°51' W 093°58'0 0.0
2018-Feb-16 14:30N 29°51' W 093°58'0 0.0
2018-Feb-16 14:01N 29°51' W 093°58'0 0.0
2018-Feb-16 13:31N 29°51' W 093°58'0 0.0
2018-Feb-16 13:01N 29°51' W 093°58'0 0.0
2018-Feb-16 12:30N 29°51' W 093°58'0 0.0
2018-Feb-16 12:00N 29°51' W 093°58'0 0.0
2018-Feb-16 11:31N 29°51' W 093°58'0 0.0
2018-Feb-16 11:00N 29°51' W 093°58'0 0.0
2018-Feb-16 10:31N 29°51' W 093°58'0 0.0
2018-Feb-16 10:00N 29°51' W 093°58'0 0.0
2018-Feb-16 09:31N 29°51' W 093°58'0 0.0
2018-Feb-16 09:00N 29°51' W 093°58'0 0.0
2018-Feb-16 08:31N 29°51' W 093°58'0 0.0
2018-Feb-16 08:01N 29°51' W 093°58'0 0.0
2018-Feb-16 07:30N 29°51' W 093°58'0 0.0
2018-Feb-16 07:00N 29°51' W 093°58'0 0.0
2018-Feb-16 06:30N 29°51' W 093°58'0 0.0
2018-Feb-16 06:01N 29°51' W 093°58'0 0.0
2018-Feb-16 05:31N 29°51' W 093°58'0 0.0
2018-Feb-16 05:00N 29°51' W 093°58'0 0.0
2018-Feb-16 04:30N 29°51' W 093°58'0 0.2
2018-Feb-16 04:01N 29°51' W 093°58'0 0.0
2018-Feb-16 03:31N 29°51' W 093°58'0 0.0
2018-Feb-16 03:00N 29°51' W 093°58'0 0.0
2018-Feb-16 02:30N 29°51' W 093°58'0 0.0
2018-Feb-16 02:01N 29°51' W 093°58'0 0.0
2018-Feb-16 01:30N 29°51' W 093°58'0 0.0
2018-Feb-16 01:01N 29°51' W 093°58'0 0.0
2018-Feb-16 00:31N 29°51' W 093°58'0 0.0
2018-Feb-16 00:00N 29°51' W 093°58'0 0.0
2018-Feb-15 23:31N 29°51' W 093°58'0 0.0
2018-Feb-15 23:01N 29°51' W 093°58'0 0.0
2018-Feb-15 22:31N 29°51' W 093°58'0 0.0
2018-Feb-15 22:00N 29°51' W 093°58'0 0.1
2018-Feb-15 21:30N 29°51' W 093°58'1 2.2
2018-Feb-15 21:01N 29°50' W 093°58'2 3.7
2018-Feb-15 20:30N 29°51' W 093°57'2 3.6
2018-Feb-15 20:01N 29°53' W 093°55'2 4.2
2018-Feb-15 19:30N 29°54' W 093°54'2 4.5
2018-Feb-15 19:01N 29°56' W 093°52'1 2.9
2018-Feb-15 18:30N 29°57' W 093°52'0 0.0
2018-Feb-15 18:00N 29°57' W 093°52'0 0.0
2018-Feb-15 17:30N 29°57' W 093°52'0 0.0
2018-Feb-15 17:00N 29°57' W 093°52'0 0.0
2018-Feb-15 16:31N 29°57' W 093°52'0 0.0
2018-Feb-15 16:00N 29°57' W 093°52'0 0.0
2018-Feb-15 15:31N 29°57' W 093°52'0 0.0
2018-Feb-15 15:01N 29°57' W 093°52'0 0.0
2018-Feb-15 14:31N 29°57' W 093°52'0 0.0
2018-Feb-15 14:01N 29°57' W 093°52'0 0.0
2018-Feb-15 13:30N 29°57' W 093°52'0 0.0
2018-Feb-15 13:00N 29°57' W 093°52'0 0.0
2018-Feb-15 12:30N 29°57' W 093°52'0 0.0
2018-Feb-15 12:00N 29°57' W 093°52'0 0.0
2018-Feb-15 11:31N 29°57' W 093°52'0 0.0
2018-Feb-15 11:00N 29°57' W 093°52'0 0.0
2018-Feb-15 10:31N 29°57' W 093°52'0 0.0
2018-Feb-15 10:01N 29°57' W 093°52'0 0.0
2018-Feb-15 09:30N 29°57' W 093°52'0 0.0
2018-Feb-15 09:00N 29°57' W 093°52'0 0.0
2018-Feb-15 08:31N 29°57' W 093°52'0 0.0
2018-Feb-15 08:01N 29°57' W 093°52'0 0.0
2018-Feb-15 07:30N 29°57' W 093°52'0 0.0
2018-Feb-15 07:01N 29°57' W 093°52'0 0.0
2018-Feb-15 06:30N 29°57' W 093°52'0 0.0
2018-Feb-15 06:00N 29°57' W 093°52'0 0.0
2018-Feb-15 05:31N 29°57' W 093°52'0 0.0
2018-Feb-15 05:01N 29°57' W 093°52'0 0.0
2018-Feb-15 04:30N 29°57' W 093°52'0 0.0
2018-Feb-15 04:00N 29°57' W 093°52'0 0.0
2018-Feb-15 03:30N 29°57' W 093°52'0 0.0
2018-Feb-15 03:01N 29°57' W 093°52'0 0.0
2018-Feb-15 02:29N 29°57' W 093°52'0 0.0
2018-Feb-15 02:01N 29°57' W 093°52'0 0.1
2018-Feb-15 01:30N 29°57' W 093°52'0 0.1
2018-Feb-15 01:00N 29°58' W 093°52'0 0.0
2018-Feb-15 00:31N 29°58' W 093°52'0 0.0
2018-Feb-14 23:59N 29°58' W 093°52'0 0.0
2018-Feb-14 23:30N 29°58' W 093°52'0 0.0
2018-Feb-14 23:00N 29°58' W 093°52'0 0.0
2018-Feb-14 22:30N 29°58' W 093°52'0 0.0
2018-Feb-14 22:00N 29°58' W 093°52'0 0.0
2018-Feb-14 21:30N 29°58' W 093°52'0 0.0
2018-Feb-14 21:00N 29°58' W 093°52'0 0.0
2018-Feb-14 20:30N 29°58' W 093°52'0 0.0
2018-Feb-14 20:00N 29°58' W 093°52'0 0.0
2018-Feb-14 19:31N 29°58' W 093°52'0 0.0
2018-Feb-14 19:01N 29°58' W 093°52'0 0.0
2018-Feb-14 18:31N 29°58' W 093°52'0 0.0
2018-Feb-14 18:01N 29°58' W 093°52'0 0.0
2018-Feb-14 17:31N 29°58' W 093°52'0 0.0
2018-Feb-14 17:00N 29°58' W 093°52'0 0.0
2018-Feb-14 16:29N 29°58' W 093°52'0 0.0
2018-Feb-14 16:00N 29°58' W 093°52'0 0.0
2018-Feb-14 15:29N 29°58' W 093°52'0 0.0
2018-Feb-14 15:00N 29°58' W 093°52'0 0.0
2018-Feb-14 14:30N 29°58' W 093°52'0 0.0
2018-Feb-14 14:00N 29°58' W 093°52'0 0.0
2018-Feb-14 13:30N 29°58' W 093°52'0 0.0
2018-Feb-14 13:00N 29°58' W 093°52'0 0.0
2018-Feb-14 12:31N 29°58' W 093°52'0 0.0
2018-Feb-14 12:00N 29°58' W 093°52'0 0.0
2018-Feb-14 11:30N 29°58' W 093°52'0 0.0
2018-Feb-14 11:00N 29°58' W 093°52'0 0.0
2018-Feb-14 10:27N 29°58' W 093°52'0 0.0
2018-Feb-14 09:59N 29°58' W 093°52'0 0.0
2018-Feb-14 09:30N 29°58' W 093°52'0 0.0
2018-Feb-14 09:01N 29°58' W 093°52'0 0.0
2018-Feb-14 08:29N 29°58' W 093°52'0 0.0
2018-Feb-14 08:01N 29°58' W 093°52'0 0.0
2018-Feb-14 07:30N 29°58' W 093°52'0 0.0
2018-Feb-14 07:01N 29°58' W 093°52'0 0.0
2018-Feb-14 06:31N 29°58' W 093°52'0 0.0
2018-Feb-14 06:00N 29°58' W 093°52'0 0.0
2018-Feb-14 05:31N 29°58' W 093°52'0 0.0
2018-Feb-14 05:00N 29°58' W 093°52'0 0.0
2018-Feb-14 04:30N 29°58' W 093°52'0 0.0
2018-Feb-14 04:01N 29°58' W 093°52'0 0.2
2018-Feb-14 03:30N 29°57' W 093°52'0 0.4
2018-Feb-14 03:00N 29°57' W 093°52'1 1.5
2018-Feb-14 02:31N 29°58' W 093°51'0 0.0
2018-Feb-14 02:01N 29°58' W 093°51'0 0.0
2018-Feb-14 01:30N 29°58' W 093°51'0 0.0
2018-Feb-14 01:00N 29°58' W 093°51'0 0.0
2018-Feb-14 00:31N 29°58' W 093°51'0 0.0
2018-Feb-14 00:00N 29°58' W 093°51'0 0.0
2018-Feb-13 23:31N 29°58' W 093°51'0 0.0
2018-Feb-13 23:00N 29°58' W 093°51'0 0.0
2018-Feb-13 22:30N 29°58' W 093°51'0 0.1
2018-Feb-13 22:00N 29°58' W 093°51'1 1.4
2018-Feb-13 21:31N 29°57' W 093°52'0 0.1
2018-Feb-13 21:00N 29°57' W 093°52'1 1.1
2018-Feb-13 20:30N 29°57' W 093°52'1 1.7
2018-Feb-13 20:01N 29°56' W 093°52'3 5.4
2018-Feb-13 19:31N 29°54' W 093°54'3 5.4
2018-Feb-13 19:00N 29°52' W 093°56'3 5.0
2018-Feb-13 18:31N 29°50' W 093°57'1 2.3
2018-Feb-13 18:01N 29°49' W 093°59'0 0.0
2018-Feb-13 17:31N 29°49' W 093°59'0 0.0
2018-Feb-13 17:00N 29°49' W 093°59'0 0.0
2018-Feb-13 16:31N 29°49' W 093°59'0 0.0
2018-Feb-13 16:01N 29°49' W 093°59'0 0.0
2018-Feb-13 15:30N 29°49' W 093°59'0 0.0
2018-Feb-13 15:00N 29°49' W 093°59'0 0.0
2018-Feb-13 14:31N 29°49' W 093°59'0 0.0
2018-Feb-13 14:01N 29°49' W 093°59'0 0.0
2018-Feb-13 13:31N 29°49' W 093°59'0 0.0
2018-Feb-13 13:00N 29°49' W 093°59'0 0.0
2018-Feb-13 12:31N 29°49' W 093°59'0 0.0
2018-Feb-13 12:01N 29°49' W 093°59'0 0.0
2018-Feb-13 11:31N 29°49' W 093°59'0 0.0
2018-Feb-13 11:00N 29°49' W 093°59'0 0.0
2018-Feb-13 10:30N 29°49' W 093°59'0 0.0
2018-Feb-13 10:00N 29°49' W 093°59'0 0.0
2018-Feb-13 09:30N 29°49' W 093°59'0 0.7
2018-Feb-13 09:00N 29°49' W 093°59'0 0.1
2018-Feb-13 08:30N 29°49' W 093°59'2 3.6
2018-Feb-13 08:00N 29°48' W 094°01'2 4.1
2018-Feb-13 07:30N 29°46' W 094°02'2 3.9
2018-Feb-13 07:00N 29°45' W 094°04'2 3.1
2018-Feb-13 06:31N 29°44' W 094°05'2 4.0
2018-Feb-13 06:01N 29°43' W 094°07'2 4.1
2018-Feb-13 05:31N 29°42' W 094°09'2 4.1
2018-Feb-13 05:00N 29°41' W 094°11'2 3.9
2018-Feb-13 04:30N 29°40' W 094°13'1 3.0
2018-Feb-13 04:00N 29°40' W 094°15'2 3.2
2018-Feb-13 03:30N 29°39' W 094°17'1 2.1
2018-Feb-13 03:00N 29°38' W 094°18'2 3.1
2018-Feb-13 02:29N 29°38' W 094°19'2 3.8
2018-Feb-13 01:57N 29°37' W 094°21'2 4.0
2018-Feb-13 01:28N 29°36' W 094°23'2 3.1
2018-Feb-13 00:58N 29°35' W 094°25'  

Dump ship's entire track history